Terminal Aerodrome Forecast
Issued by NWS

Home | Current Version | Previous Version | Text Only | Print | Product List | Glossary On
Versions: 1 2 3 4 5 6 7 8 9 10 11 12 13 14 15 16 17 18 19 20 21 22 23 24 25
000
FTUS44 KOUN 181120
TAFCSM
TAF
KCSM 181120Z 1812/1912 18003KT 2SM BR OVC003
      TEMPO 1812/1814 3/4SM BR
     FM190200 04006KT 1/2SM FG OVC002=

USA.gov is the U.S. government's official web portal to all federal, state and local government web resources and services.